createdAt,value
2018-03-19T00:01:54.063Z,82
2018-03-19T00:06:53.841Z,83
2018-03-19T00:11:53.590Z,83
2018-03-19T00:16:54.521Z,83
2018-03-19T00:21:54.360Z,83
2018-03-19T00:26:54.556Z,83
2018-03-19T00:31:54.385Z,83
2018-03-19T00:36:54.217Z,84
2018-03-19T00:41:54.331Z,84
2018-03-19T00:46:54.180Z,84
2018-03-19T00:51:54.031Z,84
2018-03-19T00:56:53.888Z,84
2018-03-19T01:01:54.006Z,84
2018-03-19T01:06:53.810Z,84
2018-03-19T01:11:53.647Z,84
2018-03-19T01:16:54.492Z,85
2018-03-19T01:21:54.327Z,85
2018-03-19T01:26:54.184Z,85
2018-03-19T01:31:54.072Z,85
2018-03-19T01:36:53.949Z,85
2018-03-19T01:41:53.813Z,85
2018-03-19T01:46:53.619Z,85
2018-03-19T01:51:54.491Z,85
2018-03-19T01:56:54.319Z,85
2018-03-19T02:01:54.148Z,85
2018-03-19T02:06:54.439Z,85
2018-03-19T02:11:54.236Z,85
2018-03-19T02:16:54.111Z,85
2018-03-19T02:21:53.992Z,85
2018-03-19T02:26:53.793Z,85
2018-03-19T02:31:54.700Z,85
2018-03-19T02:36:54.562Z,85
2018-03-19T02:41:54.389Z,85
2018-03-19T02:46:54.258Z,84
2018-03-19T02:51:54.066Z,84
2018-03-19T02:56:54.024Z,84
2018-03-19T03:01:53.904Z,84
2018-03-19T03:06:54.426Z,84
2018-03-19T03:11:54.343Z,84
2018-03-19T03:16:54.264Z,84
2018-03-19T03:21:54.172Z,84
2018-03-19T03:26:54.008Z,83
2018-03-19T03:31:53.890Z,83
2018-03-19T03:36:54.722Z,83
2018-03-19T03:41:54.556Z,83
2018-03-19T03:46:54.451Z,83
2018-03-19T03:51:54.336Z,83
2018-03-19T03:56:54.260Z,83
2018-03-19T04:01:54.245Z,83
2018-03-19T04:06:54.637Z,83
2018-03-19T04:11:54.570Z,83
2018-03-19T04:16:54.498Z,83
2018-03-19T04:21:54.435Z,83
2018-03-19T04:26:54.391Z,83
2018-03-19T04:31:54.279Z,83
2018-03-19T04:36:54.158Z,83
2018-03-19T04:41:53.991Z,83
2018-03-19T04:46:53.901Z,83
2018-03-19T04:51:54.015Z,83
2018-03-19T04:56:54.044Z,83
2018-03-19T05:01:53.940Z,83
2018-03-19T05:06:53.951Z,83
2018-03-19T05:11:54.794Z,83
2018-03-19T05:16:54.776Z,82
2018-03-19T05:21:54.806Z,82
2018-03-19T05:26:54.884Z,82
2018-03-19T05:31:54.133Z,82
2018-03-19T05:36:54.057Z,82
2018-03-19T05:41:53.947Z,82
2018-03-19T05:46:54.883Z,82
2018-03-19T05:51:54.800Z,82
2018-03-19T05:56:54.747Z,82
2018-03-19T06:01:54.684Z,82
2018-03-19T06:06:54.475Z,83
2018-03-19T06:11:54.335Z,83
2018-03-19T06:16:54.219Z,83
2018-03-19T06:21:54.044Z,83
2018-03-19T06:26:53.990Z,83
2018-03-19T06:31:54.968Z,83
2018-03-19T06:36:54.993Z,83
2018-03-19T06:41:54.996Z,83
2018-03-19T06:46:54.964Z,83
2018-03-19T06:51:54.852Z,83
2018-03-19T06:56:54.702Z,83
2018-03-19T07:01:54.656Z,83
2018-03-19T07:06:54.269Z,81
2018-03-19T07:11:54.210Z,81
2018-03-19T07:16:54.127Z,79
2018-03-19T07:21:54.577Z,79
2018-03-19T07:26:54.419Z,77
2018-03-19T07:31:54.284Z,77
2018-03-19T07:36:54.162Z,74
2018-03-19T07:41:54.970Z,74
2018-03-19T07:46:54.887Z,70
2018-03-19T07:51:54.917Z,70
2018-03-19T07:56:54.750Z,65
2018-03-19T08:01:54.682Z,65
2018-03-19T08:06:54.648Z,59
2018-03-19T08:11:54.578Z,59
2018-03-19T08:16:54.546Z,57
2018-03-19T08:21:54.428Z,57
2018-03-19T08:26:54.321Z,53
2018-03-19T08:31:54.180Z,53
2018-03-19T08:36:54.112Z,50
2018-03-19T08:41:55.052Z,50
2018-03-19T08:46:54.999Z,48
2018-03-19T08:51:54.995Z,48
2018-03-19T08:56:54.999Z,43
2018-03-19T09:01:54.935Z,43
2018-03-19T09:06:54.853Z,41
2018-03-19T09:11:54.777Z,41
2018-03-19T09:16:54.727Z,40
2018-03-19T09:21:54.552Z,40
2018-03-19T09:26:54.526Z,40
2018-03-19T09:31:54.437Z,40
2018-03-19T09:36:54.355Z,40
2018-03-19T09:41:54.219Z,40
2018-03-19T09:46:54.143Z,39
2018-03-19T09:51:55.036Z,39
2018-03-19T09:56:54.872Z,38
2018-03-19T10:01:54.754Z,38
2018-03-19T10:06:54.866Z,39
2018-03-19T10:11:54.720Z,39
2018-03-19T10:16:54.683Z,36
2018-03-19T10:21:54.520Z,36
2018-03-19T10:26:54.398Z,36
2018-03-19T10:31:54.317Z,36
2018-03-19T10:36:54.194Z,36
2018-03-19T10:41:55.166Z,36
2018-03-19T10:46:55.047Z,36
2018-03-19T10:51:55.083Z,36
2018-03-19T10:56:55.065Z,34
2018-03-19T11:01:55.155Z,34
2018-03-19T11:06:54.633Z,34
2018-03-19T11:11:54.687Z,34
2018-03-19T11:16:54.675Z,34
2018-03-19T11:21:54.534Z,34
2018-03-19T11:26:54.449Z,35
2018-03-19T11:31:54.415Z,35
2018-03-19T11:36:54.488Z,34
2018-03-19T11:41:54.451Z,34
2018-03-19T11:46:54.312Z,35
2018-03-19T11:51:55.225Z,35
2018-03-19T11:56:55.187Z,34
2018-03-19T12:01:55.136Z,34
2018-03-19T12:06:54.643Z,34
2018-03-19T12:11:54.545Z,34
2018-03-19T12:16:54.498Z,34
2018-03-19T12:21:54.438Z,34
2018-03-19T12:26:54.419Z,34
2018-03-19T12:31:54.397Z,34
2018-03-19T12:36:54.442Z,34
2018-03-19T12:41:55.282Z,34
2018-03-19T12:46:55.121Z,33
2018-03-19T12:51:55.049Z,33
2018-03-19T12:56:54.899Z,33
2018-03-19T13:01:54.884Z,33
2018-03-19T13:06:54.946Z,33
2018-03-19T13:11:54.708Z,33
2018-03-19T13:16:55.448Z,31
2018-03-19T13:21:55.348Z,31
2018-03-19T13:26:55.273Z,31
2018-03-19T13:31:55.227Z,31
2018-03-19T13:36:55.221Z,32
2018-03-19T13:41:55.109Z,32
2018-03-19T13:46:55.075Z,30
2018-03-19T13:51:55.038Z,30
2018-03-19T13:56:55.378Z,31
2018-03-19T14:01:55.367Z,31
2018-03-19T14:06:55.386Z,30
2018-03-19T14:11:54.502Z,30
2018-03-19T14:16:55.474Z,31
2018-03-19T14:21:54.451Z,31
2018-03-19T14:26:55.346Z,31
2018-03-19T14:31:55.238Z,31
2018-03-19T14:36:55.133Z,32
2018-03-19T14:41:55.109Z,32
2018-03-19T14:46:55.087Z,32
2018-03-19T14:51:55.075Z,32
2018-03-19T14:56:55.101Z,33
2018-03-19T15:01:55.060Z,33
2018-03-19T15:06:55.219Z,32
2018-03-19T15:11:54.812Z,32
2018-03-19T15:16:54.805Z,33
2018-03-19T15:21:54.838Z,33
2018-03-19T15:26:54.789Z,33
2018-03-19T15:31:54.678Z,33
2018-03-19T15:36:54.605Z,33
2018-03-19T15:41:55.438Z,33
2018-03-19T15:46:55.456Z,33
2018-03-19T15:51:55.464Z,33
2018-03-19T15:56:55.447Z,34
2018-03-19T16:01:55.410Z,34
2018-03-19T16:06:55.453Z,34
2018-03-19T16:11:55.289Z,34
2018-03-19T16:16:55.177Z,34
2018-03-19T16:21:55.064Z,34
2018-03-19T16:26:54.931Z,36
2018-03-19T16:31:54.833Z,36
2018-03-19T16:36:54.768Z,37
2018-03-19T16:41:54.639Z,37
2018-03-19T16:46:54.686Z,37
2018-03-19T16:51:54.648Z,37
2018-03-19T16:56:55.558Z,38
2018-03-19T17:01:55.629Z,38
2018-03-19T17:06:55.558Z,38
2018-03-19T17:11:55.224Z,38
2018-03-19T17:16:55.259Z,39
2018-03-19T17:21:55.207Z,39
2018-03-19T17:26:55.100Z,40
2018-03-19T17:32:26.111Z,40
2018-03-19T17:36:54.986Z,40
2018-03-19T17:41:54.875Z,40
2018-03-19T17:46:55.417Z,41
2018-03-19T17:51:55.298Z,41
2018-03-19T17:56:55.173Z,42
2018-03-19T18:01:55.278Z,42
2018-03-19T18:06:55.430Z,44
2018-03-19T18:11:54.776Z,44
2018-03-19T18:16:55.689Z,47
2018-03-19T18:21:54.737Z,47
2018-03-19T18:26:55.675Z,48
2018-03-19T18:31:55.801Z,48
2018-03-19T18:36:55.743Z,49
2018-03-19T18:41:55.628Z,49
2018-03-19T18:46:55.588Z,50
2018-03-19T18:51:55.668Z,50
2018-03-19T18:56:55.559Z,52
2018-03-19T19:01:55.488Z,52
2018-03-19T19:06:55.538Z,53
2018-03-19T19:11:55.532Z,53
2018-03-19T19:16:55.423Z,56
2018-03-19T19:21:55.364Z,56
2018-03-19T19:26:55.262Z,56
2018-03-19T19:31:55.239Z,56
2018-03-19T19:36:55.505Z,57
2018-03-19T19:41:55.493Z,57
2018-03-19T19:46:55.651Z,58
2018-03-19T19:51:55.603Z,58
2018-03-19T19:56:55.580Z,58
2018-03-19T20:01:55.698Z,58
2018-03-19T20:06:55.812Z,60
2018-03-19T20:11:55.778Z,60
2018-03-19T20:16:55.814Z,61
2018-03-19T20:21:54.911Z,61
2018-03-19T20:26:54.922Z,64
2018-03-19T20:31:54.939Z,64
2018-03-19T20:36:54.974Z,65
2018-03-19T20:41:54.927Z,65
2018-03-19T20:46:54.921Z,66
2018-03-19T20:51:54.958Z,66
2018-03-19T20:56:54.894Z,66
2018-03-19T21:06:55.192Z,64
2018-03-19T21:11:55.631Z,64
2018-03-19T21:16:55.632Z,62
2018-03-19T21:21:55.686Z,62
2018-03-19T21:26:55.696Z,60
2018-03-19T21:31:55.885Z,60
2018-03-19T21:36:54.984Z,58
2018-03-19T21:41:54.992Z,58
2018-03-19T21:46:55.044Z,57
2018-03-19T21:51:55.089Z,57
2018-03-19T21:56:55.036Z,58
2018-03-19T22:01:55.140Z,58
2018-03-19T22:06:55.321Z,60
2018-03-19T22:11:55.826Z,60
2018-03-19T22:16:55.832Z,63
2018-03-19T22:21:55.887Z,63
2018-03-19T22:26:55.894Z,67
2018-03-19T22:31:56.055Z,67
2018-03-19T22:36:55.066Z,70
2018-03-19T22:41:55.047Z,70
2018-03-19T22:46:55.047Z,73
2018-03-19T22:51:55.108Z,73
2018-03-19T22:56:55.396Z,75
2018-03-19T23:01:55.512Z,75
2018-03-19T23:06:55.676Z,78
2018-03-19T23:11:55.660Z,78
2018-03-19T23:16:55.472Z,81
2018-03-19T23:21:55.289Z,81
2018-03-19T23:26:56.118Z,83
2018-03-19T23:31:56.065Z,83
2018-03-19T23:36:55.933Z,85
2018-03-19T23:41:55.840Z,85
2018-03-19T23:46:55.616Z,86
2018-03-19T23:51:55.439Z,86
2018-03-19T23:56:55.276Z,87
